Time;durP1;ratioP1;P1;durP2;ratioP2;P2;SDS_P1;SDS_P2;PMS_P1;PMS_P2;Temp;Humidity;BMP_temperature;BMP_pressure;BME280_temperature;BME280_humidity;BME280_pressure;Samples;Min_cycle;Max_cycle;Signal;HPM_P1;HPM_P2
2023/10/29 00:00:24;;;;;;;24.17;12.90;;;8.90;99.90;;;;;;5194450;28;20289;-49
2023/10/29 00:02:55;;;;;;;20.17;11.80;;;8.90;99.90;;;;;;5191849;28;20211;-49
2023/10/29 00:05:31;;;;;;;22.13;11.30;;;9.00;99.90;;;;;;5193891;28;20453;-49
2023/10/29 00:08:02;;;;;;;25.10;9.33;;;9.00;99.90;;;;;;5201012;28;20442;-49
2023/10/29 00:10:33;;;;;;;20.77;10.33;;;9.10;99.90;;;;;;5198210;28;20447;-49
2023/10/29 00:13:04;;;;;;;18.73;10.43;;;9.10;99.90;;;;;;5199023;28;20675;-49
2023/10/29 00:15:35;;;;;;;14.33;10.97;;;9.00;99.90;;;;;;5193691;28;20200;-49
2023/10/29 00:18:12;;;;;;;14.87;8.90;;;9.00;99.90;;;;;;5188619;28;20478;-48
2023/10/29 00:20:43;;;;;;;21.90;9.93;;;8.90;99.90;;;;;;5197419;28;20631;-49
2023/10/29 00:23:16;;;;;;;11.97;9.43;;;8.90;99.90;;;;;;5195019;28;20529;-48
2023/10/29 00:25:47;;;;;;;22.80;9.60;;;8.90;99.90;;;;;;5207474;28;20185;-49
2023/10/29 00:28:18;;;;;;;17.67;8.37;;;8.90;99.90;;;;;;5197666;28;20441;-48
2023/10/29 00:30:49;;;;;;;18.80;8.50;;;8.90;99.90;;;;;;5198643;28;20239;-49
2023/10/29 00:33:21;;;;;;;11.27;8.53;;;9.00;99.90;;;;;;5192051;28;20215;-50
2023/10/29 00:35:53;;;;;;;14.67;9.23;;;8.90;99.90;;;;;;5193536;28;20471;-49
2023/10/29 00:38:24;;;;;;;10.50;7.20;;;8.90;99.90;;;;;;5195508;28;20858;-50
2023/10/29 00:40:55;;;;;;;20.03;10.17;;;8.90;99.90;;;;;;5189957;28;20482;-50
2023/10/29 00:43:26;;;;;;;10.50;8.70;;;8.80;99.90;;;;;;5193968;28;20192;-50
2023/10/29 00:45:57;;;;;;;21.07;8.40;;;8.80;99.90;;;;;;5196935;28;20553;-48
2023/10/29 00:48:28;;;;;;;7.60;6.80;;;8.80;99.90;;;;;;5201346;28;20788;-49
2023/10/29 00:50:59;;;;;;;12.13;8.13;;;8.90;99.90;;;;;;5192292;28;20466;-48
2023/10/29 00:53:30;;;;;;;20.10;10.80;;;8.80;99.90;;;;;;5180658;28;20442;-49
2023/10/29 00:56:08;;;;;;;12.30;7.87;;;8.80;99.90;;;;;;5196157;28;20506;-49
2023/10/29 00:58:43;;;;;;;7.60;6.90;;;8.80;99.90;;;;;;5195082;28;20435;-49
2023/10/29 01:01:14;;;;;;;29.13;8.00;;;8.80;99.90;;;;;;5195550;28;20518;-50
2023/10/29 01:03:44;;;;;;;17.20;7.60;;;8.80;99.90;;;;;;5199982;28;20423;-51
2023/10/29 01:06:16;;;;;;;7.63;6.43;;;8.80;99.90;;;;;;5200388;28;20212;-49
2023/10/29 01:08:47;;;;;;;21.77;8.97;;;8.80;99.90;;;;;;5188603;28;20191;-49
2023/10/29 01:11:18;;;;;;;23.00;8.97;;;8.90;99.90;;;;;;5182782;28;20472;-49
2023/10/29 01:13:50;;;;;;;13.23;7.30;;;8.80;99.90;;;;;;5198578;28;20242;-49
2023/10/29 01:16:20;;;;;;;9.73;7.00;;;8.80;99.90;;;;;;5194467;28;20612;-49
2023/10/29 01:18:51;;;;;;;12.60;7.40;;;8.80;99.90;;;;;;5207552;28;20423;-49
2023/10/29 01:21:24;;;;;;;9.83;6.33;;;8.80;99.90;;;;;;5204934;28;20604;-50
2023/10/29 01:23:55;;;;;;;16.43;7.50;;;8.80;99.90;;;;;;5187386;28;20247;-50
2023/10/29 01:26:25;;;;;;;7.63;6.30;;;8.80;99.90;;;;;;5198239;28;20501;-50
2023/10/29 01:28:56;;;;;;;16.60;7.93;;;8.80;99.90;;;;;;5198805;28;20955;-49
2023/10/29 01:31:30;;;;;;;15.13;7.33;;;8.80;99.90;;;;;;5199101;28;20208;-50
2023/10/29 01:34:01;;;;;;;17.80;7.40;;;8.80;99.90;;;;;;5199000;28;20180;-50
2023/10/29 01:36:32;;;;;;;11.27;5.60;;;8.70;99.90;;;;;;5197081;28;20536;-50
2023/10/29 01:39:04;;;;;;;14.33;8.53;;;8.70;99.90;;;;;;5195200;28;20207;-50
2023/10/29 01:41:35;;;;;;;15.53;7.97;;;8.70;99.90;;;;;;5193453;28;20459;-48
2023/10/29 01:44:06;;;;;;;11.77;7.90;;;8.70;99.90;;;;;;5199244;28;20434;-49
2023/10/29 01:46:37;;;;;;;22.90;7.87;;;8.70;99.90;;;;;;5202427;28;20191;-49
2023/10/29 01:49:09;;;;;;;11.73;6.97;;;8.80;99.90;;;;;;5200405;28;20517;-50
2023/10/29 01:51:40;;;;;;;14.10;6.80;;;8.80;99.90;;;;;;5197169;28;20281;-49
2023/10/29 01:54:11;;;;;;;10.87;7.00;;;8.80;99.90;;;;;;5196612;28;20450;-50
2023/10/29 01:56:45;;;;;;;18.70;7.50;;;8.80;99.90;;;;;;5192732;28;21065;-51
2023/10/29 01:59:16;;;;;;;15.97;6.37;;;8.80;99.90;;;;;;5180354;28;20192;-50
2023/10/29 02:01:46;;;;;;;16.87;6.07;;;9.00;99.90;;;;;;5197984;28;20459;-50
2023/10/29 02:04:17;;;;;;;24.17;6.50;;;8.80;99.90;;;;;;5198045;28;20184;-49
2023/10/29 02:06:50;;;;;;;7.53;4.47;;;8.90;99.90;;;;;;5194628;28;20181;-49
2023/10/29 02:09:22;;;;;;;9.67;5.07;;;8.90;99.90;;;;;;5192899;28;20198;-49
2023/10/29 02:11:55;;;;;;;11.47;6.03;;;8.90;99.90;;;;;;5199619;28;20451;-49
2023/10/29 02:14:28;;;;;;;12.13;6.43;;;8.90;99.90;;;;;;5199149;28;20463;-49
2023/10/29 02:16:59;;;;;;;6.70;4.50;;;8.90;99.90;;;;;;5194528;28;21030;-50
2023/10/29 02:19:30;;;;;;;13.33;6.00;;;9.00;99.90;;;;;;5199762;28;20445;-49
2023/10/29 02:22:00;;;;;;;7.60;4.50;;;8.90;99.90;;;;;;5196884;28;20196;-49
2023/10/29 02:24:31;;;;;;;6.53;5.40;;;8.90;99.90;;;;;;5205555;28;20183;-49
2023/10/29 02:27:02;;;;;;;22.87;5.50;;;9.00;99.90;;;;;;5197198;28;20650;-49
2023/10/29 02:29:33;;;;;;;9.13;6.20;;;9.00;99.90;;;;;;5190269;28;20184;-49
2023/10/29 02:32:04;;;;;;;11.63;5.50;;;9.00;99.90;;;;;;5200123;28;20459;-49
2023/10/29 02:34:35;;;;;;;15.13;5.50;;;9.10;99.90;;;;;;5197831;28;20430;-49
2023/10/29 02:37:06;;;;;;;10.13;5.57;;;9.00;99.90;;;;;;5197861;28;20488;-49
2023/10/29 02:39:37;;;;;;;7.47;5.53;;;9.00;99.90;;;;;;5194203;28;20445;-49
2023/10/29 02:42:09;;;;;;;14.53;6.20;;;9.10;99.90;;;;;;5194544;28;20665;-49
2023/10/29 02:44:39;;;;;;;12.40;5.67;;;9.10;99.90;;;;;;5201181;28;20164;-49
2023/10/29 02:47:10;;;;;;;12.00;6.67;;;9.10;99.90;;;;;;5212706;28;20446;-49
2023/10/29 02:49:41;;;;;;;16.10;5.03;;;9.10;99.90;;;;;;5196465;28;20180;-50
2023/10/29 02:52:12;;;;;;;18.33;6.30;;;9.00;99.90;;;;;;5189052;28;20271;-50
2023/10/29 02:54:42;;;;;;;7.33;5.03;;;9.10;99.90;;;;;;5194279;28;20246;-48
2023/10/29 02:57:13;;;;;;;15.50;5.97;;;9.10;99.90;;;;;;5198751;28;20577;-49
2023/10/29 02:59:44;;;;;;;6.43;4.77;;;9.10;99.90;;;;;;5195332;28;20267;-49
2023/10/29 03:02:15;;;;;;;13.83;6.53;;;9.10;99.90;;;;;;5191590;28;20454;-49
2023/10/29 03:04:46;;;;;;;6.53;4.70;;;9.10;99.90;;;;;;5190559;28;20730;-49
2023/10/29 03:07:16;;;;;;;20.30;7.50;;;9.10;99.90;;;;;;5199231;28;20443;-49
2023/10/29 03:09:47;;;;;;;10.37;5.73;;;9.10;99.90;;;;;;5196865;28;20730;-49
2023/10/29 03:12:18;;;;;;;10.53;6.63;;;9.10;99.90;;;;;;5198688;28;20250;-49
2023/10/29 03:14:49;;;;;;;19.03;7.20;;;9.20;99.90;;;;;;5196342;28;20533;-48
2023/10/29 03:17:20;;;;;;;12.10;6.40;;;9.10;99.90;;;;;;5196975;28;20196;-50
2023/10/29 03:19:50;;;;;;;13.93;6.67;;;9.10;99.90;;;;;;5198734;28;20176;-49
2023/10/29 03:22:24;;;;;;;24.63;6.63;;;9.20;99.90;;;;;;5187494;28;20200;-49
2023/10/29 03:24:55;;;;;;;12.70;7.20;;;9.20;99.90;;;;;;5178046;28;20227;-49
2023/10/29 03:27:26;;;;;;;9.37;6.77;;;9.20;99.90;;;;;;5195338;28;20824;-51
2023/10/29 03:29:56;;;;;;;9.60;6.30;;;9.20;99.90;;;;;;5178168;28;20183;-50
2023/10/29 03:32:27;;;;;;;13.90;6.33;;;9.20;99.90;;;;;;5210403;28;20235;-49
2023/10/29 03:34:58;;;;;;;14.47;7.27;;;9.20;99.90;;;;;;5209589;28;20192;-49
2023/10/29 03:37:28;;;;;;;14.03;6.10;;;9.20;99.90;;;;;;5193449;28;20207;-49
2023/10/29 03:39:59;;;;;;;18.87;6.87;;;9.20;99.90;;;;;;5188884;28;20243;-49
2023/10/29 03:42:30;;;;;;;11.00;7.37;;;9.20;99.90;;;;;;5187553;28;20274;-49
2023/10/29 03:45:04;;;;;;;8.13;5.83;;;9.30;99.90;;;;;;5195944;28;20176;-49
2023/10/29 03:47:34;;;;;;;11.87;6.40;;;9.30;99.90;;;;;;5196342;28;20574;-49
2023/10/29 03:50:06;;;;;;;8.40;5.70;;;9.20;99.90;;;;;;5192031;28;20439;-48
2023/10/29 03:52:37;;;;;;;22.57;7.80;;;9.20;99.90;;;;;;5194197;28;20188;-48
2023/10/29 03:55:08;;;;;;;16.43;7.23;;;9.20;99.90;;;;;;5193397;28;20438;-49
2023/10/29 03:57:39;;;;;;;17.27;7.20;;;9.20;99.90;;;;;;5190370;28;20978;-49
2023/10/29 04:00:10;;;;;;;12.60;6.63;;;9.20;99.90;;;;;;5198724;28;20438;-49
2023/10/29 04:02:41;;;;;;;19.80;7.20;;;9.20;99.90;;;;;;5199181;28;20191;-49
2023/10/29 04:05:16;;;;;;;8.70;7.07;;;9.20;99.90;;;;;;5193946;28;20434;-49
2023/10/29 04:07:46;;;;;;;11.77;6.33;;;9.20;99.90;;;;;;5191760;28;20194;-50
2023/10/29 04:10:17;;;;;;;8.67;5.83;;;9.20;99.90;;;;;;5199117;28;20796;-49
2023/10/29 04:12:51;;;;;;;11.13;6.17;;;9.20;99.90;;;;;;5203244;28;20186;-49
2023/10/29 04:15:22;;;;;;;12.57;7.37;;;9.30;99.90;;;;;;5212452;28;20274;-50
2023/10/29 04:17:52;;;;;;;17.37;7.40;;;9.20;99.90;;;;;;5197344;28;20525;-49
2023/10/29 04:20:23;;;;;;;17.00;7.30;;;9.20;99.90;;;;;;5194586;28;20562;-48
2023/10/29 04:22:54;;;;;;;8.13;5.77;;;9.20;99.90;;;;;;5192510;28;20180;-49
2023/10/29 04:25:25;;;;;;;13.53;6.87;;;9.30;99.90;;;;;;5189691;28;20180;-49
2023/10/29 04:27:56;;;;;;;11.30;5.90;;;9.30;99.90;;;;;;5195687;28;20442;-50
2023/10/29 04:30:29;;;;;;;16.10;8.07;;;9.40;99.90;;;;;;5188789;28;20200;-49
2023/10/29 04:33:00;;;;;;;11.40;7.30;;;9.40;99.90;;;;;;5200692;28;20542;-49
2023/10/29 04:35:32;;;;;;;12.83;6.80;;;9.40;99.90;;;;;;5202868;28;20433;-49
2023/10/29 04:38:02;;;;;;;15.93;6.70;;;9.40;99.90;;;;;;5196563;28;20426;-50
2023/10/29 04:40:33;;;;;;;14.80;8.00;;;9.40;99.90;;;;;;5193295;28;20458;-48
2023/10/29 04:43:04;;;;;;;15.73;6.80;;;9.40;99.90;;;;;;5196605;28;20186;-50
2023/10/29 04:45:35;;;;;;;18.83;7.43;;;9.50;99.90;;;;;;5204601;28;20183;-49
2023/10/29 04:48:06;;;;;;;14.87;6.67;;;9.40;99.90;;;;;;5194732;28;20427;-49
2023/10/29 04:50:36;;;;;;;18.80;6.90;;;9.40;99.90;;;;;;5191843;28;20545;-49
2023/10/29 04:53:07;;;;;;;23.37;7.97;;;9.40;99.90;;;;;;5186149;28;20418;-49
2023/10/29 04:55:38;;;;;;;24.00;7.70;;;9.40;99.90;;;;;;5198196;28;20184;-49
2023/10/29 04:58:09;;;;;;;15.13;7.60;;;9.40;99.90;;;;;;5193875;28;20184;-49
2023/10/29 05:00:40;;;;;;;19.70;7.10;;;9.40;99.90;;;;;;5200069;28;20196;-49
2023/10/29 05:03:10;;;;;;;18.53;8.10;;;9.50;99.90;;;;;;5201260;28;20180;-49
2023/10/29 05:05:41;;;;;;;18.63;7.20;;;9.40;99.90;;;;;;5198394;28;20195;-49
2023/10/29 05:08:12;;;;;;;18.80;6.73;;;9.40;99.90;;;;;;5178584;28;20183;-50
2023/10/29 05:10:44;;;;;;;12.80;6.90;;;9.40;99.90;;;;;;5203134;28;20247;-49
2023/10/29 05:13:15;;;;;;;23.10;8.00;;;9.40;99.90;;;;;;5201485;28;20199;-48
2023/10/29 05:15:46;;;;;;;11.90;7.00;;;9.50;99.90;;;;;;5179865;28;20497;-49
2023/10/29 05:18:17;;;;;;;14.40;6.13;;;9.50;99.90;;;;;;5197605;28;20184;-50
2023/10/29 05:20:50;;;;;;;12.70;6.40;;;9.60;99.90;;;;;;5195059;28;20196;-48
2023/10/29 05:23:21;;;;;;;10.33;5.30;;;9.50;99.90;;;;;;5196369;28;20230;-48
2023/10/29 05:25:52;;;;;;;13.80;5.93;;;9.60;99.90;;;;;;5199481;28;20436;-48
2023/10/29 05:28:26;;;;;;;11.60;4.70;;;9.80;99.90;;;;;;5202142;28;20184;-48
2023/10/29 05:30:57;;;;;;;13.17;6.03;;;9.60;99.90;;;;;;5192966;28;20856;-49
2023/10/29 05:33:28;;;;;;;15.33;5.70;;;9.70;99.90;;;;;;5194511;28;20525;-48
2023/10/29 05:35:59;;;;;;;8.97;4.80;;;9.70;99.90;;;;;;5195408;28;20207;-48
2023/10/29 05:38:30;;;;;;;7.53;4.30;;;9.70;99.90;;;;;;5192530;28;20183;-48
2023/10/29 05:41:01;;;;;;;21.13;10.07;;;9.70;99.90;;;;;;5192714;28;20603;-49
2023/10/29 05:43:33;;;;;;;12.43;6.23;;;9.80;99.90;;;;;;5204371;28;20434;-48
2023/10/29 05:46:04;;;;;;;12.60;6.20;;;9.80;99.90;;;;;;5200500;28;20729;-49
2023/10/29 05:48:35;;;;;;;16.80;5.23;;;9.80;99.90;;;;;;5192402;28;20442;-49
2023/10/29 05:51:06;;;;;;;13.77;5.13;;;9.90;99.90;;;;;;5179290;28;20204;-49
2023/10/29 05:53:38;;;;;;;13.00;3.90;;;9.90;99.90;;;;;;5195750;28;20222;-49
2023/10/29 05:56:08;;;;;;;17.00;7.50;;;10.00;99.90;;;;;;5195479;28;20266;-50
2023/10/29 05:58:41;;;;;;;9.77;5.63;;;10.00;99.90;;;;;;5187818;28;20432;-49
2023/10/29 06:01:15;;;;;;;24.07;6.10;;;10.00;99.90;;;;;;5199649;28;20203;-49
2023/10/29 06:03:46;;;;;;;6.43;4.00;;;10.00;99.90;;;;;;5194735;28;20439;-49
2023/10/29 06:06:17;;;;;;;14.80;5.07;;;10.00;99.90;;;;;;5199793;28;20808;-49
2023/10/29 06:08:48;;;;;;;14.80;4.70;;;10.10;99.90;;;;;;5199163;28;20208;-48
2023/10/29 06:11:22;;;;;;;21.03;4.90;;;10.10;99.90;;;;;;5201370;28;20511;-50
2023/10/29 06:13:53;;;;;;;10.93;5.20;;;10.20;99.90;;;;;;5214846;28;20432;-49
2023/10/29 06:16:24;;;;;;;14.83;5.67;;;10.30;99.90;;;;;;5202823;28;20497;-49
2023/10/29 06:18:55;;;;;;;11.70;5.40;;;10.30;99.90;;;;;;5196564;28;20474;-49
2023/10/29 06:21:26;;;;;;;16.13;5.90;;;10.20;99.90;;;;;;5197195;28;20302;-49
2023/10/29 06:23:57;;;;;;;12.20;4.60;;;10.30;99.90;;;;;;5194484;28;20185;-50
2023/10/29 06:26:28;;;;;;;13.00;5.37;;;10.30;99.90;;;;;;5193821;28;20227;-48
2023/10/29 06:28:58;;;;;;;11.00;4.43;;;10.20;99.90;;;;;;5201788;28;20423;-49
2023/10/29 06:31:29;;;;;;;13.77;5.47;;;10.20;99.90;;;;;;5195060;28;20462;-48
2023/10/29 06:34:01;;;;;;;12.93;6.00;;;10.30;99.90;;;;;;5197967;28;20184;-49
2023/10/29 06:36:32;;;;;;;6.10;3.70;;;10.30;99.90;;;;;;5202151;28;20234;-57
2023/10/29 06:39:06;;;;;;;19.83;4.40;;;10.30;99.90;;;;;;5201993;28;21001;-50
2023/10/29 06:41:37;;;;;;;6.13;4.90;;;10.40;99.90;;;;;;5193907;28;20211;-49
2023/10/29 06:44:07;;;;;;;11.03;4.40;;;10.40;99.90;;;;;;5201452;28;20746;-49
2023/10/29 06:46:38;;;;;;;11.37;4.90;;;10.40;99.90;;;;;;5192035;28;20184;-49
2023/10/29 06:49:09;;;;;;;3.90;3.10;;;10.50;99.90;;;;;;5200290;28;20603;-49
2023/10/29 06:51:39;;;;;;;10.07;3.63;;;10.50;99.90;;;;;;5198770;28;20240;-49
2023/10/29 06:54:11;;;;;;;7.90;3.57;;;10.40;99.90;;;;;;5195804;28;20183;-50
2023/10/29 06:56:42;;;;;;;5.23;3.27;;;10.50;99.90;;;;;;5197710;28;20211;-48
2023/10/29 06:59:13;;;;;;;8.27;3.70;;;10.60;99.90;;;;;;5192196;28;20431;-52
2023/10/29 07:01:44;;;;;;;6.17;3.60;;;10.60;99.90;;;;;;5200179;28;20463;-48
2023/10/29 07:04:18;;;;;;;3.70;3.30;;;10.60;99.90;;;;;;5192124;28;20172;-48
2023/10/29 07:06:49;;;;;;;6.60;4.50;;;10.50;99.90;;;;;;5195789;28;20216;-49
2023/10/29 07:09:20;;;;;;;4.50;3.70;;;10.40;99.90;;;;;;5196398;28;20549;-49
2023/10/29 07:11:51;;;;;;;8.53;4.57;;;10.50;99.90;;;;;;5197115;28;20549;-49
2023/10/29 07:14:22;;;;;;;10.87;4.67;;;10.40;99.90;;;;;;5197653;28;20227;-49
2023/10/29 07:16:53;;;;;;;7.13;3.77;;;10.40;99.90;;;;;;5181318;28;20461;-50
2023/10/29 07:19:23;;;;;;;8.77;4.20;;;10.50;99.90;;;;;;5192220;28;20278;-49
2023/10/29 07:21:54;;;;;;;8.60;3.70;;;10.60;99.90;;;;;;5195526;28;20187;-49
2023/10/29 07:24:25;;;;;;;4.10;3.50;;;10.60;99.90;;;;;;5201361;28;20262;-49
2023/10/29 07:26:59;;;;;;;10.13;4.47;;;10.50;99.90;;;;;;5196149;28;20192;-48
2023/10/29 07:29:29;;;;;;;12.37;4.20;;;10.50;99.90;;;;;;5194995;28;20435;-50
2023/10/29 07:32:02;;;;;;;10.60;4.63;;;10.50;99.90;;;;;;5196989;28;20497;-50
2023/10/29 07:34:33;;;;;;;9.63;3.70;;;10.40;99.90;;;;;;5200203;28;20190;-49
2023/10/29 07:37:04;;;;;;;9.23;4.90;;;10.50;99.90;;;;;;5199056;28;20553;-49
2023/10/29 07:39:38;;;;;;;15.20;5.50;;;10.40;99.90;;;;;;5203867;28;20600;-50
2023/10/29 07:42:09;;;;;;;7.70;4.50;;;10.50;99.90;;;;;;5195620;28;20458;-49
2023/10/29 07:44:42;;;;;;;5.40;3.50;;;10.40;99.90;;;;;;5194816;28;20427;-48
2023/10/29 07:47:12;;;;;;;11.87;3.87;;;10.60;99.90;;;;;;5214699;28;20213;-51
2023/10/29 07:49:43;;;;;;;6.47;4.53;;;10.60;99.90;;;;;;5193684;28;20485;-49
2023/10/29 07:52:15;;;;;;;5.63;2.67;;;10.70;99.90;;;;;;5198310;28;20215;-49
2023/10/29 07:54:46;;;;;;;7.20;4.23;;;10.70;99.90;;;;;;5191887;28;20188;-51
2023/10/29 07:57:17;;;;;;;13.13;4.73;;;10.70;99.90;;;;;;5191580;28;20853;-50
2023/10/29 07:59:51;;;;;;;7.57;4.60;;;10.60;99.90;;;;;;5195685;28;20179;-50
2023/10/29 08:02:21;;;;;;;5.47;4.80;;;10.60;99.90;;;;;;5202384;28;20445;-50
2023/10/29 08:04:53;;;;;;;11.73;5.30;;;10.60;99.90;;;;;;5190912;28;21465;-50
2023/10/29 08:07:24;;;;;;;10.73;4.43;;;10.60;99.90;;;;;;5197286;28;20274;-49
2023/10/29 08:09:56;;;;;;;11.23;4.00;;;10.50;99.90;;;;;;5192884;28;20434;-49
2023/10/29 08:12:28;;;;;;;5.13;3.33;;;10.50;99.90;;;;;;5200988;28;20469;-49
2023/10/29 08:14:59;;;;;;;9.13;5.50;;;10.60;99.90;;;;;;5198949;28;20442;-49
2023/10/29 08:17:33;;;;;;;7.90;4.20;;;10.60;99.90;;;;;;5203344;28;20461;-50
2023/10/29 08:20:06;;;;;;;10.50;5.17;;;10.50;99.90;;;;;;5197441;28;20562;-52
2023/10/29 08:22:40;;;;;;;8.50;4.20;;;10.50;99.90;;;;;;5194639;28;20438;-50
2023/10/29 08:25:11;;;;;;;12.50;6.70;;;10.60;99.90;;;;;;5194469;28;20431;-49
2023/10/29 08:27:41;;;;;;;23.13;6.97;;;10.60;99.90;;;;;;5192877;28;20441;-48
2023/10/29 08:30:13;;;;;;;48.30;16.73;;;10.70;99.90;;;;;;5197524;28;20275;-49
2023/10/29 08:32:43;;;;;;;8.73;5.10;;;10.80;99.90;;;;;;5196444;28;20184;-49
2023/10/29 08:35:17;;;;;;;4.53;3.47;;;10.70;99.90;;;;;;5201072;28;20551;-50
2023/10/29 08:37:48;;;;;;;6.50;3.93;;;10.70;99.90;;;;;;5196791;28;20298;-49
2023/10/29 08:40:19;;;;;;;8.63;3.70;;;10.60;99.90;;;;;;5196225;28;20514;-50
2023/10/29 08:42:53;;;;;;;9.13;5.17;;;10.70;99.90;;;;;;5200290;28;20180;-49
2023/10/29 08:45:23;;;;;;;16.07;4.70;;;10.70;99.90;;;;;;5198157;28;20199;-49
2023/10/29 08:47:54;;;;;;;6.10;4.80;;;10.70;99.90;;;;;;5200555;28;20433;-49
2023/10/29 08:50:25;;;;;;;13.50;7.23;;;10.80;99.90;;;;;;5202452;28;20203;-50
2023/10/29 08:52:56;;;;;;;10.47;6.53;;;10.80;99.90;;;;;;5196933;28;20192;-49
2023/10/29 08:55:28;;;;;;;7.33;5.87;;;10.80;99.90;;;;;;5215261;28;20186;-50
2023/10/29 08:57:59;;;;;;;12.17;6.93;;;10.80;99.90;;;;;;5197315;28;20796;-51
2023/10/29 09:00:31;;;;;;;11.67;5.03;;;10.80;99.90;;;;;;5196531;28;20503;-51
2023/10/29 09:03:02;;;;;;;10.40;4.50;;;10.90;99.90;;;;;;5203408;28;20450;-51
2023/10/29 09:05:33;;;;;;;11.10;6.83;;;10.90;99.90;;;;;;5192328;28;20477;-51
2023/10/29 09:08:04;;;;;;;7.17;4.40;;;11.00;99.90;;;;;;5203159;28;20248;-51
2023/10/29 09:10:41;;;;;;;14.10;9.20;;;11.10;99.90;;;;;;5193724;28;20450;-49
2023/10/29 09:13:12;;;;;;;13.57;5.50;;;11.30;99.90;;;;;;5199948;28;20686;-49
2023/10/29 09:15:43;;;;;;;9.37;7.23;;;11.30;99.90;;;;;;5193726;28;20518;-51
2023/10/29 09:18:13;;;;;;;12.03;5.27;;;11.50;99.90;;;;;;5208544;28;20207;-51
2023/10/29 09:20:47;;;;;;;8.43;4.90;;;11.60;99.90;;;;;;5203776;28;20200;-51
2023/10/29 09:23:23;;;;;;;13.23;4.87;;;11.60;99.90;;;;;;5200349;28;20949;-50
2023/10/29 09:25:53;;;;;;;7.53;4.70;;;11.60;99.90;;;;;;5202633;28;20469;-49
2023/10/29 09:28:26;;;;;;;8.80;5.33;;;11.50;99.90;;;;;;5192894;28;20439;-49
2023/10/29 09:30:57;;;;;;;8.57;4.17;;;11.50;99.90;;;;;;5199356;28;20192;-49
2023/10/29 09:33:28;;;;;;;12.70;5.10;;;11.50;99.90;;;;;;5196465;28;21013;-51
2023/10/29 09:36:00;;;;;;;5.40;4.23;;;11.60;99.90;;;;;;5197167;28;20465;-51
2023/10/29 09:38:31;;;;;;;7.20;4.20;;;11.70;99.90;;;;;;5201243;28;20444;-50
2023/10/29 09:41:02;;;;;;;15.50;5.47;;;11.80;99.90;;;;;;5201350;28;20458;-50
2023/10/29 09:43:43;;;;;;;5.67;4.73;;;11.80;99.90;;;;;;5192149;28;20192;-50
2023/10/29 09:46:13;;;;;;;7.13;4.47;;;11.90;99.90;;;;;;5194713;28;20830;-50
2023/10/29 09:48:45;;;;;;;9.63;4.63;;;12.00;99.90;;;;;;5196355;28;20473;-50
2023/10/29 09:51:16;;;;;;;6.83;4.50;;;12.10;99.90;;;;;;5209022;28;20224;-50
2023/10/29 09:53:51;;;;;;;4.20;3.70;;;12.20;99.90;;;;;;5188883;28;20438;-49
2023/10/29 09:56:24;;;;;;;9.00;4.60;;;12.20;99.90;;;;;;5201369;28;20457;-51
2023/10/29 09:58:55;;;;;;;11.67;5.20;;;12.10;99.90;;;;;;5202536;28;20585;-50
2023/10/29 10:01:26;;;;;;;7.90;4.40;;;12.10;99.90;;;;;;5192158;28;20470;-50
2023/10/29 10:03:56;;;;;;;6.60;4.60;;;12.10;99.90;;;;;;5194490;28;20191;-51
2023/10/29 10:06:32;;;;;;;3.60;3.30;;;12.00;99.90;;;;;;5195240;28;20176;-51
2023/10/29 10:09:03;;;;;;;5.00;4.60;;;12.00;99.90;;;;;;5196682;28;20200;-52
2023/10/29 10:11:34;;;;;;;3.80;2.77;;;12.00;99.90;;;;;;5189485;28;20462;-50
2023/10/29 10:14:05;;;;;;;4.80;2.80;;;12.10;99.90;;;;;;5193620;28;20446;-50
2023/10/29 10:16:35;;;;;;;4.83;3.30;;;12.10;99.90;;;;;;5164189;28;20227;-51
2023/10/29 10:19:06;;;;;;;7.40;4.33;;;12.10;99.90;;;;;;5192019;28;20906;-50
2023/10/29 10:21:42;;;;;;;4.63;4.20;;;12.20;99.90;;;;;;5191905;28;20208;-50
2023/10/29 10:24:13;;;;;;;6.70;3.43;;;12.10;99.90;;;;;;5193733;28;20446;-51
2023/10/29 10:26:44;;;;;;;11.33;6.30;;;12.20;99.90;;;;;;5192298;28;20455;-51
2023/10/29 10:29:16;;;;;;;5.23;2.97;;;12.10;99.90;;;;;;5189316;28;21089;-51
2023/10/29 10:31:58;;;;;;;9.73;3.57;;;12.10;99.90;;;;;;5193217;28;20246;-51
2023/10/29 10:34:31;;;;;;;3.20;2.87;;;12.10;99.90;;;;;;5200707;28;20812;-52
2023/10/29 10:37:04;;;;;;;3.23;2.43;;;12.20;99.90;;;;;;5193250;28;20584;-51
2023/10/29 10:39:38;;;;;;;3.93;2.60;;;12.20;99.90;;;;;;5194915;28;20447;-50
2023/10/29 10:42:09;;;;;;;4.43;3.00;;;12.30;99.90;;;;;;5199127;28;20439;-51
2023/10/29 10:44:42;;;;;;;2.87;2.50;;;12.20;99.90;;;;;;5196601;28;20435;-51
2023/10/29 10:47:13;;;;;;;2.53;2.33;;;12.30;99.90;;;;;;5197325;28;20446;-51
2023/10/29 10:49:45;;;;;;;5.40;2.70;;;12.40;99.90;;;;;;5198030;28;20456;-50
2023/10/29 10:52:17;;;;;;;2.73;2.50;;;12.40;99.90;;;;;;5198420;28;20572;-50
2023/10/29 10:54:48;;;;;;;4.27;3.23;;;12.30;99.90;;;;;;5188843;28;20888;-51
2023/10/29 10:57:23;;;;;;;8.13;4.10;;;12.30;99.90;;;;;;5194096;28;20470;-52
2023/10/29 10:59:59;;;;;;;5.30;2.60;;;12.40;99.90;;;;;;5199582;28;20422;-53
2023/10/29 11:02:30;;;;;;;2.43;2.10;;;12.40;99.90;;;;;;5194430;28;20426;-51
2023/10/29 11:05:04;;;;;;;2.63;1.80;;;12.40;99.90;;;;;;5191479;28;20478;-51
2023/10/29 11:07:38;;;;;;;2.73;1.73;;;12.50;99.90;;;;;;5196403;28;20439;-52
2023/10/29 11:10:12;;;;;;;3.50;1.97;;;12.60;99.90;;;;;;5196618;28;20804;-51
2023/10/29 11:12:46;;;;;;;1.50;1.40;;;12.70;99.90;;;;;;5193947;28;20441;-51
2023/10/29 11:15:19;;;;;;;1.70;1.50;;;12.90;99.90;;;;;;5195374;28;22113;-52
2023/10/29 11:17:58;;;;;;;4.43;2.87;;;13.10;99.90;;;;;;5197236;28;20498;-52
2023/10/29 11:20:49;;;;;;;3.20;2.37;;;13.40;99.90;;;;;;5193026;28;20805;-52
2023/10/29 11:23:27;;;;;;;2.10;1.80;;;13.50;99.90;;;;;;5195878;28;20477;-53
2023/10/29 11:26:20;;;;;;;3.03;1.73;;;13.70;99.90;;;;;;5195759;28;20485;-54
2023/10/29 11:28:53;;;;;;;7.03;2.10;;;13.60;99.90;;;;;;5198386;28;20968;-55
2023/10/29 11:31:26;;;;;;;2.70;2.13;;;13.60;99.90;;;;;;5197277;28;20523;-52
2023/10/29 11:33:59;;;;;;;2.93;1.90;;;13.70;99.90;;;;;;5193396;28;20443;-51
2023/10/29 11:36:33;;;;;;;2.40;1.83;;;13.70;99.90;;;;;;5193387;28;20462;-51
2023/10/29 11:39:28;;;;;;;3.80;2.60;;;13.70;99.90;;;;;;5196900;28;20565;-50
2023/10/29 11:42:26;;;;;;;4.07;2.40;;;13.70;99.90;;;;;;5198038;28;20522;-51
2023/10/29 11:45:30;;;;;;;3.70;2.37;;;13.80;99.90;;;;;;5199275;28;20553;-51
2023/10/29 11:48:09;;;;;;;1.73;1.63;;;13.90;99.90;;;;;;5215490;28;20431;-50
2023/10/29 11:50:44;;;;;;;2.17;2.00;;;13.80;99.90;;;;;;5196396;28;20476;-52
2023/10/29 11:53:27;;;;;;;5.30;2.83;;;13.90;99.90;;;;;;5195864;28;20524;-53
2023/10/29 11:56:04;;;;;;;2.13;1.90;;;14.00;99.90;;;;;;5198218;28;20462;-50
2023/10/29 11:58:36;;;;;;;2.30;1.63;;;13.90;99.90;;;;;;5212418;28;20494;-52
2023/10/29 12:01:06;;;;;;;5.07;1.90;;;14.00;99.90;;;;;;5198304;28;20450;-49
2023/10/29 12:03:38;;;;;;;1.47;1.47;;;14.00;99.90;;;;;;5199881;28;20433;-51
2023/10/29 12:06:08;;;;;;;3.80;1.63;;;14.00;99.90;;;;;;5195877;28;20180;-53
2023/10/29 12:08:40;;;;;;;4.13;1.60;;;13.90;99.90;;;;;;5195517;28;20437;-51
2023/10/29 12:11:13;;;;;;;5.50;1.70;;;13.90;99.90;;;;;;5196551;28;20560;-51
2023/10/29 12:13:44;;;;;;;3.40;1.77;;;14.00;99.90;;;;;;5193781;28;20970;-51
2023/10/29 12:16:15;;;;;;;3.93;1.50;;;14.10;99.90;;;;;;5194961;28;20489;-52
2023/10/29 12:18:49;;;;;;;4.13;2.10;;;14.40;99.90;;;;;;5193111;28;20450;-51
2023/10/29 12:21:20;;;;;;;1.30;1.20;;;14.50;99.90;;;;;;5196114;28;20235;-52
2023/10/29 12:23:51;;;;;;;2.20;1.43;;;14.70;99.90;;;;;;5196459;28;21078;-52
2023/10/29 12:26:21;;;;;;;2.50;1.57;;;14.90;99.90;;;;;;5196777;28;20542;-53
2023/10/29 12:28:52;;;;;;;2.60;1.60;;;15.20;99.90;;;;;;5195746;28;20185;-52
2023/10/29 12:31:27;;;;;;;3.43;2.07;;;15.20;99.90;;;;;;5194235;28;20208;-52
2023/10/29 12:33:59;;;;;;;1.27;1.27;;;15.20;99.90;;;;;;5195252;28;20215;-53
2023/10/29 12:36:30;;;;;;;1.17;1.17;;;15.20;99.90;;;;;;5182083;28;20492;-52
2023/10/29 12:39:00;;;;;;;4.33;1.60;;;15.20;99.90;;;;;;5195733;28;20427;-52
2023/10/29 12:41:37;;;;;;;2.77;1.67;;;15.40;99.90;;;;;;5188716;28;20459;-53
2023/10/29 12:44:16;;;;;;;9.53;4.37;;;15.50;99.90;;;;;;5191852;28;20179;-52
2023/10/29 12:46:50;;;;;;;1.63;1.60;;;15.50;99.90;;;;;;5191931;28;20530;-52
2023/10/29 12:49:25;;;;;;;2.47;2.13;;;15.40;99.90;;;;;;5194517;28;20466;-53
2023/10/29 12:51:56;;;;;;;1.40;1.30;;;15.40;99.90;;;;;;5195694;28;20454;-54
2023/10/29 12:54:30;;;;;;;2.40;1.27;;;15.30;99.90;;;;;;5198834;28;20430;-51
2023/10/29 12:57:02;;;;;;;5.80;1.50;;;15.30;99.90;;;;;;5197362;28;20472;-52
2023/10/29 12:59:33;;;;;;;3.53;1.70;;;15.50;99.90;;;;;;5197380;28;21042;-54
2023/10/29 13:02:10;;;;;;;2.20;1.70;;;15.30;99.90;;;;;;5200639;28;20450;-51
2023/10/29 13:04:41;;;;;;;0.87;0.87;;;15.30;99.90;;;;;;5199214;28;20453;-54
2023/10/29 13:07:13;;;;;;;4.10;1.50;;;15.30;99.90;;;;;;5199161;28;20450;-53
2023/10/29 13:09:45;;;;;;;1.47;1.47;;;15.40;99.90;;;;;;5201033;28;20175;-52